Time;durP1;ratioP1;P1;durP2;ratioP2;P2;SDS_P1;SDS_P2;PMS_P1;PMS_P2;Temp;Humidity;BMP_temperature;BMP_pressure;BME280_temperature;BME280_humidity;BME280_pressure;Samples;Min_cycle;Max_cycle;Signal;HPM_P1;HPM_P2
2022/01/15 05:11:32;;;;;;;6.72;5.87;;;;;;;;;;3837908;37;20098;-72
2022/01/15 05:13:58;;;;;;;7.50;5.60;;;;;;;;;;4402025;32;20105;-70
2022/01/15 05:16:24;;;;;;;6.40;5.70;;;;;;;;;;4404310;32;20188;-70
2022/01/15 05:18:50;;;;;;;6.10;5.47;;;;;;;;;;4404332;32;20125;-71
2022/01/15 05:21:16;;;;;;;5.40;4.90;;;;;;;;;;4401256;32;20264;-70
2022/01/15 05:23:42;;;;;;;6.18;4.80;;;;;;;;;;4402910;32;20105;-70
2022/01/15 05:26:10;;;;;;;5.53;4.97;;;;;;;;;;4404312;32;20541;-68
2022/01/15 05:28:36;;;;;;;6.00;4.50;;;;;;;;;;4404311;32;20200;-70
2022/01/15 05:31:02;;;;;;;5.37;4.87;;;;;;;;;;4402425;32;20125;-70
2022/01/15 05:33:28;;;;;;;5.28;4.78;;;;;;;;;;4402344;32;20158;-70
2022/01/15 05:35:54;;;;;;;5.60;5.05;;;;;;;;;;4399387;32;20558;-69
2022/01/15 05:38:20;;;;;;;5.45;4.82;;;;;;;;;;4399056;32;20174;-68
2022/01/15 05:40:46;;;;;;;6.03;5.00;;;;;;;;;;4404189;32;20554;-71
2022/01/15 05:43:12;;;;;;;5.55;4.95;;;;;;;;;;4402688;32;20104;-71
2022/01/15 05:45:38;;;;;;;5.12;4.62;;;;;;;;;;4404102;32;20168;-69
2022/01/15 05:48:04;;;;;;;7.75;4.90;;;;;;;;;;4401084;32;20114;-71
2022/01/15 05:50:30;;;;;;;6.05;4.78;;;;;;;;;;4398508;32;20526;-71
2022/01/15 05:52:58;;;;;;;5.72;5.18;;;;;;;;;;4394869;32;20093;-70
2022/01/15 05:55:24;;;;;;;5.65;5.03;;;;;;;;;;4402864;32;20115;-70
2022/01/15 05:57:50;;;;;;;6.03;4.70;;;;;;;;;;4402990;32;20502;-69
2022/01/15 06:00:16;;;;;;;5.32;4.82;;;;;;;;;;4384285;32;20113;-70
2022/01/15 06:02:43;;;;;;;5.37;4.87;;;;;;;;;;4391367;32;20105;-70
2022/01/15 06:05:09;;;;;;;5.68;5.10;;;;;;;;;;4388839;32;20120;-70
2022/01/15 06:07:35;;;;;;;6.85;5.15;;;;;;;;;;4389064;32;20084;-69
2022/01/15 06:10:02;;;;;;;7.95;5.93;;;;;;;;;;4382185;32;20113;-71
2022/01/15 06:12:31;;;;;;;7.68;6.55;;;;;;;;;;4402586;32;20190;-70
2022/01/15 06:14:58;;;;;;;8.73;6.93;;;;;;;;;;4389951;32;20198;-72
2022/01/15 06:17:24;;;;;;;10.88;8.57;;;;;;;;;;4401177;32;20105;-75
2022/01/15 06:19:50;;;;;;;7.93;6.65;;;;;;;;;;4400357;32;20102;-75
2022/01/15 06:22:16;;;;;;;6.25;5.65;;;;;;;;;;4379726;32;20467;-74
2022/01/15 06:24:42;;;;;;;6.47;5.68;;;;;;;;;;4394725;32;20179;-73
2022/01/15 06:27:11;;;;;;;5.50;5.00;;;;;;;;;;4394649;32;20500;-70
2022/01/15 06:29:39;;;;;;;6.30;5.00;;;;;;;;;;4380090;32;20209;-72
2022/01/15 06:32:05;;;;;;;5.30;4.62;;;;;;;;;;4394183;32;20100;-74
2022/01/15 06:39:02;;;;;;;7.10;5.20;;;;;;;;;;4286967;33;20212;-72
2022/01/15 06:41:28;;;;;;;6.00;5.40;;;;;;;;;;4279340;33;20112;-70
2022/01/15 06:43:54;;;;;;;5.53;4.75;;;;;;;;;;4344290;32;20207;-70
2022/01/15 06:46:20;;;;;;;9.13;6.18;;;;;;;;;;4360048;32;20605;-71
2022/01/15 06:48:46;;;;;;;8.30;5.72;;;;;;;;;;4355984;32;20250;-73
2022/01/15 06:51:12;;;;;;;6.22;4.97;;;;;;;;;;4363279;32;20472;-72
2022/01/15 06:53:38;;;;;;;7.07;5.50;;;;;;;;;;4376028;32;20094;-72
2022/01/15 06:56:04;;;;;;;7.05;5.12;;;;;;;;;;4375501;32;20109;-69
2022/01/15 06:58:30;;;;;;;6.25;5.50;;;;;;;;;;4376029;32;20117;-61
2022/01/15 07:00:56;;;;;;;6.07;5.47;;;;;;;;;;4375742;32;20247;-62
2022/01/15 07:03:22;;;;;;;7.70;5.80;;;;;;;;;;4373334;32;20126;-64
2022/01/15 07:05:48;;;;;;;5.80;5.15;;;;;;;;;;4363160;32;20180;-67
2022/01/15 07:08:14;;;;;;;5.78;5.18;;;;;;;;;;4377458;32;20459;-68
2022/01/15 07:10:41;;;;;;;5.37;4.87;;;;;;;;;;4379058;32;20125;-70
2022/01/15 07:13:08;;;;;;;5.97;5.40;;;;;;;;;;4377064;32;20114;-74
2022/01/15 07:15:35;;;;;;;5.97;5.37;;;;;;;;;;4383427;32;20105;-73
2022/01/15 07:18:01;;;;;;;6.87;6.18;;;;;;;;;;4353855;32;20613;-73
2022/01/15 07:20:27;;;;;;;7.32;6.12;;;;;;;;;;4392767;32;20101;-73
2022/01/15 07:22:54;;;;;;;6.47;5.82;;;;;;;;;;4368363;32;20114;-73
2022/01/15 07:25:20;;;;;;;7.37;6.07;;;;;;;;;;4375554;32;20128;-73
2022/01/15 07:27:46;;;;;;;6.43;5.82;;;;;;;;;;4378263;32;20206;-73
2022/01/15 07:30:14;;;;;;;5.95;5.25;;;;;;;;;;4364277;32;20116;-73
2022/01/15 07:32:41;;;;;;;6.57;5.65;;;;;;;;;;4376010;32;20196;-70
2022/01/15 07:35:08;;;;;;;7.00;6.30;;;;;;;;;;4376136;32;20089;-70
2022/01/15 07:37:35;;;;;;;6.85;5.62;;;;;;;;;;4376726;32;20145;-73
2022/01/15 07:40:01;;;;;;;7.62;5.53;;;;;;;;;;4364486;32;20110;-73
2022/01/15 07:42:34;;;;;;;27.75;6.05;;;;;;;;;;4364412;32;20105;-73
2022/01/15 07:45:00;;;;;;;6.10;5.20;;;;;;;;;;4378096;32;20097;-73
2022/01/15 07:47:26;;;;;;;7.20;5.47;;;;;;;;;;4378200;32;20437;-72
2022/01/15 07:49:52;;;;;;;6.03;5.25;;;;;;;;;;4392577;32;20179;-73
2022/01/15 07:52:19;;;;;;;7.57;6.22;;;;;;;;;;4393152;32;20097;-73
2022/01/15 07:54:45;;;;;;;6.50;5.90;;;;;;;;;;4393053;32;20171;-70
2022/01/15 07:57:11;;;;;;;5.57;4.95;;;;;;;;;;4391613;32;20101;-70
2022/01/15 07:59:37;;;;;;;8.15;5.00;;;;;;;;;;4393149;32;20197;-70
2022/01/15 08:02:03;;;;;;;7.50;5.37;;;;;;;;;;4393045;32;20125;-71
2022/01/15 08:04:29;;;;;;;8.18;5.60;;;;;;;;;;4391742;32;20105;-71
2022/01/15 08:06:55;;;;;;;7.87;5.40;;;;;;;;;;4392933;32;20102;-71
2022/01/15 08:09:21;;;;;;;6.05;5.30;;;;;;;;;;4392769;32;20096;-71
2022/01/15 08:11:47;;;;;;;6.18;4.87;;;;;;;;;;4391464;32;20093;-71
2022/01/15 08:14:13;;;;;;;11.12;5.68;;;;;;;;;;4392800;32;20086;-70
2022/01/15 08:16:39;;;;;;;6.22;5.43;;;;;;;;;;4391187;32;20097;-70
2022/01/15 08:19:05;;;;;;;6.97;4.72;;;;;;;;;;4391329;32;20141;-70
2022/01/15 08:21:32;;;;;;;8.07;5.80;;;;;;;;;;4392506;32;20131;-70
2022/01/15 08:23:57;;;;;;;7.37;5.68;;;;;;;;;;4392485;32;20112;-70
2022/01/15 08:26:24;;;;;;;6.32;5.22;;;;;;;;;;4392282;32;20127;-70
2022/01/15 08:28:50;;;;;;;7.00;5.70;;;;;;;;;;4391184;32;20199;-70
2022/01/15 08:31:16;;;;;;;5.95;5.37;;;;;;;;;;4392656;32;20101;-70
2022/01/15 08:33:42;;;;;;;7.22;5.60;;;;;;;;;;4392457;32;20112;-70
2022/01/15 08:36:08;;;;;;;6.25;5.50;;;;;;;;;;4392306;32;20125;-71
2022/01/15 08:38:34;;;;;;;6.72;5.72;;;;;;;;;;4378278;32;20127;-70
2022/01/15 08:41:00;;;;;;;6.78;5.95;;;;;;;;;;4390784;32;20582;-71
2022/01/15 08:43:26;;;;;;;6.37;5.55;;;;;;;;;;4392602;32;20093;-71
2022/01/15 08:45:52;;;;;;;5.90;5.15;;;;;;;;;;4391854;32;20177;-71
2022/01/15 08:48:19;;;;;;;7.85;5.82;;;;;;;;;;4392276;32;20178;-70
2022/01/15 08:50:49;;;;;;;5.60;5.10;;;;;;;;;;4391082;32;20112;-70
2022/01/15 08:53:17;;;;;;;7.10;5.53;;;;;;;;;;4392313;32;20535;-70
2022/01/15 08:55:44;;;;;;;7.10;5.80;;;;;;;;;;4378533;32;20109;-70
2022/01/15 08:58:10;;;;;;;7.40;6.43;;;;;;;;;;4392378;32;20105;-71
2022/01/15 09:00:36;;;;;;;8.27;6.40;;;;;;;;;;4392629;32;20496;-71
2022/01/15 09:03:04;;;;;;;8.60;6.25;;;;;;;;;;4391920;32;20089;-70
2022/01/15 09:05:32;;;;;;;7.57;5.80;;;;;;;;;;4392468;32;20109;-71
2022/01/15 09:07:58;;;;;;;8.07;6.00;;;;;;;;;;4390822;32;20465;-71
2022/01/15 09:10:24;;;;;;;9.68;6.40;;;;;;;;;;4392042;32;20128;-72
2022/01/15 09:12:50;;;;;;;7.45;6.30;;;;;;;;;;4392415;32;20117;-71
2022/01/15 09:15:16;;;;;;;8.18;6.57;;;;;;;;;;4392202;32;20114;-71
2022/01/15 09:17:43;;;;;;;8.02;6.87;;;;;;;;;;4392133;32;20196;-72
2022/01/15 09:20:10;;;;;;;7.75;6.68;;;;;;;;;;4378387;32;20105;-72
2022/01/15 09:22:36;;;;;;;7.53;6.22;;;;;;;;;;4391980;32;20098;-72
2022/01/15 09:25:02;;;;;;;8.07;6.68;;;;;;;;;;4390621;32;20580;-72
2022/01/15 09:30:15;;;;;;;7.68;6.72;;;;;;;;;;4392044;32;20532;-72
2022/01/15 09:32:49;;;;;;;9.30;7.37;;;;;;;;;;4391771;32;20176;-72
2022/01/15 09:35:18;;;;;;;8.48;7.10;;;;;;;;;;4391933;32;20114;-71
2022/01/15 09:37:46;;;;;;;9.40;6.95;;;;;;;;;;4390397;32;20217;-71
2022/01/15 09:40:13;;;;;;;7.72;6.40;;;;;;;;;;4390697;32;20180;-71
2022/01/15 09:42:40;;;;;;;7.85;6.90;;;;;;;;;;4390622;32;20113;-71
2022/01/15 09:45:08;;;;;;;8.35;7.15;;;;;;;;;;4390226;32;20515;-72
2022/01/15 09:47:35;;;;;;;8.40;7.47;;;;;;;;;;4389898;32;20202;-72
2022/01/15 09:50:03;;;;;;;8.25;7.10;;;;;;;;;;4390465;32;20113;-71
2022/01/15 09:52:32;;;;;;;8.98;6.30;;;;;;;;;;4377757;32;20496;-71
2022/01/15 09:54:59;;;;;;;43.28;10.13;;;;;;;;;;4390371;32;20144;-71
2022/01/15 09:57:25;;;;;;;8.45;6.50;;;;;;;;;;4393003;32;20124;-71
2022/01/15 09:59:51;;;;;;;10.32;7.03;;;;;;;;;;4393897;32;20125;-71
2022/01/15 10:02:17;;;;;;;8.35;7.40;;;;;;;;;;4393866;32;20117;-71
2022/01/15 10:04:43;;;;;;;9.73;7.93;;;;;;;;;;4405847;32;20125;-71
2022/01/15 10:07:22;;;;;;;10.85;7.60;;;;;;;;;;4394091;32;20117;-71
2022/01/15 10:09:50;;;;;;;8.68;7.00;;;;;;;;;;4380372;32;20116;-71
2022/01/15 10:12:27;;;;;;;10.07;8.45;;;;;;;;;;4392385;32;20120;-71
2022/01/15 10:15:07;;;;;;;10.05;8.00;;;;;;;;;;4380160;32;20117;-70
2022/01/15 10:17:40;;;;;;;9.57;8.32;;;;;;;;;;4380948;32;20107;-71
2022/01/15 10:20:13;;;;;;;9.77;8.48;;;;;;;;;;4392586;32;20109;-71
2022/01/15 10:22:46;;;;;;;8.30;6.35;;;;;;;;;;4392271;32;20204;-71
2022/01/15 10:25:19;;;;;;;8.52;7.22;;;;;;;;;;4393735;32;20186;-71
2022/01/15 10:27:54;;;;;;;8.65;7.57;;;;;;;;;;4392309;32;20121;-71
2022/01/15 10:30:28;;;;;;;9.50;7.50;;;;;;;;;;4393314;32;20097;-71
2022/01/15 10:33:00;;;;;;;9.70;8.18;;;;;;;;;;4393626;32;20097;-71
2022/01/15 10:35:33;;;;;;;10.55;8.10;;;;;;;;;;4393417;32;20112;-71
2022/01/15 10:38:03;;;;;;;9.98;8.48;;;;;;;;;;4393582;32;20101;-71
2022/01/15 10:40:40;;;;;;;11.63;9.10;;;;;;;;;;4392001;32;20116;-71
2022/01/15 10:43:06;;;;;;;10.35;8.30;;;;;;;;;;4379918;32;20101;-71
2022/01/15 10:45:34;;;;;;;9.20;7.87;;;;;;;;;;4379812;32;20116;-71
2022/01/15 10:48:08;;;;;;;8.73;7.87;;;;;;;;;;4392298;32;20234;-72
2022/01/15 10:50:43;;;;;;;10.93;8.60;;;;;;;;;;4392378;32;20447;-71
2022/01/15 10:53:17;;;;;;;9.65;7.62;;;;;;;;;;4392021;32;20106;-71
2022/01/15 10:59:10;;;;;;;11.00;8.52;;;;;;;;;;4327027;32;20204;-71
2022/01/15 11:01:42;;;;;;;9.82;8.82;;;;;;;;;;4391750;32;20117;-70
2022/01/15 11:04:34;;;;;;;10.70;8.57;;;;;;;;;;4379546;32;20389;-70
2022/01/15 11:07:13;;;;;;;10.48;9.38;;;;;;;;;;4396533;32;20492;-71
2022/01/15 11:09:43;;;;;;;12.27;8.90;;;;;;;;;;4390317;32;20147;-71
2022/01/15 11:12:10;;;;;;;11.57;10.38;;;;;;;;;;4379431;32;20193;-70
2022/01/15 11:14:36;;;;;;;12.70;9.60;;;;;;;;;;4404163;32;20118;-71
2022/01/15 11:17:03;;;;;;;10.43;9.23;;;;;;;;;;4391995;32;20113;-71
2022/01/15 11:19:30;;;;;;;11.12;9.93;;;;;;;;;;4392007;32;20120;-71
2022/01/15 11:21:58;;;;;;;12.15;10.95;;;;;;;;;;4393489;32;20531;-71
2022/01/15 11:24:24;;;;;;;13.15;10.65;;;;;;;;;;4391847;32;20510;-71
2022/01/15 11:26:57;;;;;;;12.93;11.27;;;;;;;;;;4391830;32;20100;-71
2022/01/15 11:29:26;;;;;;;13.65;12.20;;;;;;;;;;4392451;32;20200;-71
2022/01/15 11:31:59;;;;;;;16.62;13.25;;;;;;;;;;4391592;32;20198;-71
2022/01/15 11:34:26;;;;;;;14.07;12.57;;;;;;;;;;4391963;32;20120;-71
2022/01/15 11:36:52;;;;;;;14.20;11.75;;;;;;;;;;4392779;32;20116;-70
2022/01/15 11:39:34;;;;;;;14.18;12.68;;;;;;;;;;4379310;32;20117;-71
2022/01/15 11:42:02;;;;;;;13.77;12.37;;;;;;;;;;4392128;32;20146;-71
2022/01/15 11:44:35;;;;;;;14.68;12.20;;;;;;;;;;4393203;32;20120;-71
2022/01/15 11:47:18;;;;;;;15.52;13.18;;;;;;;;;;4392762;32;20174;-71
2022/01/15 11:49:45;;;;;;;13.95;12.40;;;;;;;;;;4391384;32;20217;-70
2022/01/15 11:52:13;;;;;;;14.85;12.35;;;;;;;;;;4404404;32;20097;-70
2022/01/15 11:54:41;;;;;;;16.42;12.90;;;;;;;;;;4391454;32;20109;-70
2022/01/15 11:57:21;;;;;;;14.15;12.65;;;;;;;;;;4391635;32;20126;-70
2022/01/15 11:59:50;;;;;;;15.13;12.27;;;;;;;;;;4366376;32;21400;-70
2022/01/15 12:02:37;;;;;;;16.95;13.82;;;;;;;;;;4391731;32;20120;-71
2022/01/15 12:05:18;;;;;;;14.05;12.45;;;;;;;;;;4391256;32;20109;-71
2022/01/15 12:07:55;;;;;;;14.60;12.70;;;;;;;;;;4393155;32;20096;-70
2022/01/15 12:10:41;;;;;;;15.48;13.55;;;;;;;;;;4403613;32;20136;-71
2022/01/15 12:13:23;;;;;;;14.80;13.23;;;;;;;;;;4393005;32;20189;-73
2022/01/15 12:16:15;;;;;;;15.30;13.80;;;;;;;;;;4391612;32;20105;-72
2022/01/15 12:18:46;;;;;;;15.27;13.82;;;;;;;;;;4378364;32;20089;-73
2022/01/15 12:21:54;;;;;;;17.00;13.82;;;;;;;;;;4391385;32;20150;-72
2022/01/15 12:24:41;;;;;;;17.98;14.48;;;;;;;;;;4392760;32;20117;-72
2022/01/15 12:27:10;;;;;;;14.55;13.15;;;;;;;;;;4392919;32;20178;-72
2022/01/15 12:29:38;;;;;;;17.20;15.50;;;;;;;;;;4391352;32;20133;-72
2022/01/15 12:32:04;;;;;;;15.93;14.18;;;;;;;;;;4391455;32;20116;-72
2022/01/15 12:34:30;;;;;;;15.55;13.62;;;;;;;;;;4391300;32;20105;-72
2022/01/15 12:36:56;;;;;;;13.70;12.25;;;;;;;;;;4391441;32;20115;-72
2022/01/15 12:39:33;;;;;;;20.98;13.65;;;;;;;;;;4392485;32;20221;-72
2022/01/15 12:42:02;;;;;;;15.02;13.40;;;;;;;;;;4392481;32;20144;-72
2022/01/15 12:44:40;;;;;;;14.20;12.20;;;;;;;;;;4381040;32;20117;-74
2022/01/15 12:47:07;;;;;;;15.38;13.38;;;;;;;;;;4357464;32;20131;-71
2022/01/15 12:49:45;;;;;;;13.73;12.32;;;;;;;;;;4390831;32;20114;-72
2022/01/15 12:55:10;;;;;;;15.02;11.93;;;;;;;;;;4373511;32;20117;-71
2022/01/15 12:57:37;;;;;;;13.98;11.65;;;;;;;;;;4388619;32;20563;-73
2022/01/15 13:00:22;;;;;;;13.85;12.52;;;;;;;;;;4403379;32;20112;-73
2022/01/15 13:02:49;;;;;;;13.70;12.32;;;;;;;;;;4403922;32;20090;-72
2022/01/15 13:05:15;;;;;;;14.70;13.13;;;;;;;;;;4378042;32;20109;-72
2022/01/15 13:07:53;;;;;;;14.38;12.88;;;;;;;;;;4392202;32;20121;-72
2022/01/15 13:10:46;;;;;;;14.50;13.00;;;;;;;;;;4403117;32;20200;-70
2022/01/15 13:13:24;;;;;;;14.30;12.82;;;;;;;;;;4387595;32;20137;-70
2022/01/15 13:16:16;;;;;;;16.92;13.35;;;;;;;;;;4375516;32;20124;-72
2022/01/15 13:18:44;;;;;;;16.73;13.52;;;;;;;;;;4377149;32;20129;-71
2022/01/15 13:21:15;;;;;;;14.93;13.27;;;;;;;;;;4377066;32;20102;-71
2022/01/15 13:23:43;;;;;;;14.80;13.30;;;;;;;;;;4388103;32;20098;-71
2022/01/15 13:26:11;;;;;;;15.52;12.90;;;;;;;;;;4375551;32;20188;-71
2022/01/15 13:28:41;;;;;;;15.40;13.70;;;;;;;;;;4383439;32;20449;-71
2022/01/15 13:31:08;;;;;;;14.82;13.20;;;;;;;;;;4375682;32;20176;-71
2022/01/15 13:33:38;;;;;;;17.02;13.38;;;;;;;;;;4378059;32;20101;-72
2022/01/15 13:36:10;;;;;;;14.85;13.27;;;;;;;;;;4379411;32;20121;-71
2022/01/15 13:38:38;;;;;;;16.48;13.95;;;;;;;;;;4377847;32;20097;-71
2022/01/15 13:41:17;;;;;;;16.75;15.05;;;;;;;;;;4379016;32;20450;-71
2022/01/15 13:43:46;;;;;;;16.35;14.57;;;;;;;;;;4379154;32;20105;-71
2022/01/15 13:46:16;;;;;;;16.10;12.82;;;;;;;;;;4379026;32;20227;-70
2022/01/15 13:48:43;;;;;;;14.15;12.65;;;;;;;;;;4377461;32;20131;-71
2022/01/15 13:54:10;;;;;;;16.75;12.85;;;;;;;;;;4381569;32;20102;-71
2022/01/15 13:56:44;;;;;;;16.15;13.40;;;;;;;;;;4393134;32;20112;-71
2022/01/15 13:59:12;;;;;;;16.48;12.93;;;;;;;;;;4392843;32;20097;-71
2022/01/15 14:01:59;;;;;;;17.87;11.77;;;;;;;;;;4392551;32;20097;-72
2022/01/15 14:04:36;;;;;;;14.35;12.35;;;;;;;;;;4392527;32;20193;-72
2022/01/15 14:07:13;;;;;;;15.25;12.68;;;;;;;;;;4392664;32;20128;-72
2022/01/15 14:09:42;;;;;;;15.00;12.27;;;;;;;;;;4379934;32;20183;-72
2022/01/15 14:12:12;;;;;;;16.60;14.90;;;;;;;;;;4405281;32;20117;-72
2022/01/15 14:15:14;;;;;;;15.65;13.95;;;;;;;;;;4392401;32;20102;-72
2022/01/15 14:17:43;;;;;;;18.10;13.48;;;;;;;;;;4392738;32;20209;-72
2022/01/15 14:20:18;;;;;;;16.70;13.73;;;;;;;;;;4392384;32;20183;-72
2022/01/15 14:22:46;;;;;;;19.83;14.40;;;;;;;;;;4392669;32;20220;-72
2022/01/15 14:25:40;;;;;;;15.57;13.43;;;;;;;;;;4392678;32;20111;-72
2022/01/15 14:28:11;;;;;;;19.60;14.90;;;;;;;;;;4389729;32;20621;-72
2022/01/15 14:30:41;;;;;;;20.73;16.02;;;;;;;;;;4377079;32;20121;-72
2022/01/15 14:33:08;;;;;;;17.50;14.82;;;;;;;;;;4352674;32;20090;-71
2022/01/15 14:35:34;;;;;;;18.08;14.70;;;;;;;;;;4377130;32;20101;-72
2022/01/15 14:38:00;;;;;;;15.93;14.27;;;;;;;;;;4378742;32;20082;-72
2022/01/15 14:40:27;;;;;;;15.20;13.55;;;;;;;;;;4377360;32;20165;-72
2022/01/15 14:42:54;;;;;;;15.43;13.80;;;;;;;;;;4376988;32;20542;-72
2022/01/15 14:45:21;;;;;;;17.33;14.02;;;;;;;;;;4377260;32;20134;-72
2022/01/15 14:47:48;;;;;;;15.43;13.23;;;;;;;;;;4377542;32;20267;-72
2022/01/15 14:50:14;;;;;;;15.05;12.77;;;;;;;;;;4364506;32;20446;-72
2022/01/15 14:52:41;;;;;;;15.15;13.55;;;;;;;;;;4378400;32;20118;-72
2022/01/15 14:55:07;;;;;;;17.70;14.35;;;;;;;;;;4386087;32;20100;-72
2022/01/15 14:57:34;;;;;;;16.20;14.50;;;;;;;;;;4391891;32;20501;-72
2022/01/15 15:00:00;;;;;;;17.95;14.75;;;;;;;;;;4393453;32;20614;-71
2022/01/15 15:02:26;;;;;;;18.23;14.82;;;;;;;;;;4393428;32;20104;-72
2022/01/15 15:04:52;;;;;;;16.80;14.43;;;;;;;;;;4379407;32;20097;-72
2022/01/15 15:07:18;;;;;;;15.32;13.43;;;;;;;;;;4404753;32;20120;-72
2022/01/15 15:09:44;;;;;;;17.40;14.10;;;;;;;;;;4393587;32;20605;-72
2022/01/15 15:12:11;;;;;;;15.13;13.07;;;;;;;;;;4393372;32;20177;-72
2022/01/15 15:14:38;;;;;;;17.92;14.48;;;;;;;;;;4393370;32;20097;-72
2022/01/15 15:17:04;;;;;;;15.82;14.05;;;;;;;;;;4393231;32;20213;-72
2022/01/15 15:19:30;;;;;;;18.37;13.55;;;;;;;;;;4379359;32;20117;-72
2022/01/15 15:21:56;;;;;;;16.62;14.85;;;;;;;;;;4404653;32;20121;-72
2022/01/15 15:24:22;;;;;;;16.73;14.93;;;;;;;;;;4393346;32;20831;-72
2022/01/15 15:26:48;;;;;;;16.58;13.95;;;;;;;;;;4393165;32;20591;-72
2022/01/15 15:29:14;;;;;;;16.05;14.35;;;;;;;;;;4393509;32;20102;-72
2022/01/15 15:31:40;;;;;;;16.25;14.38;;;;;;;;;;4393087;32;20202;-71
2022/01/15 15:34:07;;;;;;;18.37;13.95;;;;;;;;;;4393257;32;20468;-71
2022/01/15 15:36:33;;;;;;;16.85;15.05;;;;;;;;;;4391567;32;20113;-71
2022/01/15 15:39:01;;;;;;;17.58;15.25;;;;;;;;;;4378986;32;20557;-71
2022/01/15 15:41:28;;;;;;;17.27;14.82;;;;;;;;;;4393113;32;20120;-71
2022/01/15 15:43:54;;;;;;;15.52;13.35;;;;;;;;;;4391773;32;20519;-70
2022/01/15 15:46:21;;;;;;;18.37;14.70;;;;;;;;;;4391470;32;20113;-71
2022/01/15 15:48:48;;;;;;;16.17;14.48;;;;;;;;;;4392106;32;20097;-72
2022/01/15 15:51:15;;;;;;;17.15;15.05;;;;;;;;;;4392139;32;20190;-71
2022/01/15 15:53:42;;;;;;;18.75;15.38;;;;;;;;;;4390981;32;20084;-71
2022/01/15 15:56:08;;;;;;;17.92;15.15;;;;;;;;;;4392188;32;20134;-71
2022/01/15 15:58:36;;;;;;;17.12;15.23;;;;;;;;;;4393513;32;20504;-72
2022/01/15 16:01:04;;;;;;;16.48;14.77;;;;;;;;;;4379917;32;20321;-72
2022/01/15 16:03:30;;;;;;;16.52;14.35;;;;;;;;;;4391529;32;20507;-72
2022/01/15 16:05:56;;;;;;;15.82;13.90;;;;;;;;;;4391304;32;20452;-72
2022/01/15 16:08:22;;;;;;;18.73;15.32;;;;;;;;;;4393085;32;20129;-72
2022/01/15 16:10:48;;;;;;;18.40;15.52;;;;;;;;;;4391074;32;20594;-73
2022/01/15 16:13:14;;;;;;;19.62;15.32;;;;;;;;;;4391556;32;20105;-72
2022/01/15 16:15:40;;;;;;;16.52;14.75;;;;;;;;;;4403922;32;20521;-72
2022/01/15 16:18:06;;;;;;;18.00;15.15;;;;;;;;;;4393027;32;20194;-72
2022/01/15 16:20:35;;;;;;;16.92;15.13;;;;;;;;;;4392731;32;20104;-73
2022/01/15 16:23:01;;;;;;;16.48;14.77;;;;;;;;;;4391229;32;20128;-73
2022/01/15 16:25:27;;;;;;;16.40;14.70;;;;;;;;;;4392808;32;20137;-72
2022/01/15 16:27:53;;;;;;;18.42;15.20;;;;;;;;;;4392981;32;20113;-73
2022/01/15 16:30:22;;;;;;;16.80;14.82;;;;;;;;;;4391550;32;20449;-72
2022/01/15 16:32:48;;;;;;;16.77;15.07;;;;;;;;;;4392856;32;20089;-72
2022/01/15 16:35:15;;;;;;;16.15;14.43;;;;;;;;;;4392656;32;20104;-72
2022/01/15 16:37:41;;;;;;;18.45;15.13;;;;;;;;;;4391042;32;20117;-72
2022/01/15 16:40:10;;;;;;;16.87;15.18;;;;;;;;;;4392700;32;20511;-72
2022/01/15 16:42:40;;;;;;;16.87;15.10;;;;;;;;;;4391057;32;20531;-72
2022/01/15 16:45:10;;;;;;;18.02;15.13;;;;;;;;;;4378355;32;20133;-72
2022/01/15 16:47:36;;;;;;;17.30;15.52;;;;;;;;;;4391145;32;20471;-74
2022/01/15 16:50:09;;;;;;;18.27;16.15;;;;;;;;;;4392529;32;20118;-73
2022/01/15 16:52:45;;;;;;;17.87;15.68;;;;;;;;;;4391116;32;20109;-72
2022/01/15 16:55:15;;;;;;;17.67;15.45;;;;;;;;;;4392333;32;20093;-72
2022/01/15 16:57:43;;;;;;;18.12;16.05;;;;;;;;;;4392399;32;20186;-73
2022/01/15 17:00:11;;;;;;;17.75;15.65;;;;;;;;;;4390704;32;20198;-72
2022/01/15 17:02:37;;;;;;;17.20;15.48;;;;;;;;;;4390931;32;20139;-73
2022/01/15 17:05:03;;;;;;;16.10;14.50;;;;;;;;;;4392543;32;20088;-73
2022/01/15 17:07:29;;;;;;;17.23;15.15;;;;;;;;;;4390855;32;20098;-72
2022/01/15 17:09:55;;;;;;;18.95;15.98;;;;;;;;;;4392222;32;20221;-73
2022/01/15 17:12:21;;;;;;;18.42;14.95;;;;;;;;;;4392522;32;20193;-73
2022/01/15 17:14:48;;;;;;;16.95;14.93;;;;;;;;;;4392335;32;20117;-74
2022/01/15 17:17:14;;;;;;;17.17;14.32;;;;;;;;;;4392256;32;20436;-73
2022/01/15 17:19:40;;;;;;;17.77;15.88;;;;;;;;;;4392279;32;20179;-73
2022/01/15 17:22:07;;;;;;;17.35;15.55;;;;;;;;;;4392171;32;20129;-73
2022/01/15 17:24:33;;;;;;;16.65;14.70;;;;;;;;;;4390684;32;20095;-73
2022/01/15 17:26:59;;;;;;;16.60;14.80;;;;;;;;;;4403944;32;20121;-72
2022/01/15 17:29:25;;;;;;;16.67;14.15;;;;;;;;;;4391880;32;20102;-72
2022/01/15 17:31:52;;;;;;;16.45;13.93;;;;;;;;;;4392004;32;20508;-73
2022/01/15 17:34:19;;;;;;;17.60;14.65;;;;;;;;;;4392067;32;20180;-73
2022/01/15 17:36:45;;;;;;;19.80;15.38;;;;;;;;;;4391957;32;20097;-72
2022/01/15 17:39:11;;;;;;;17.33;15.48;;;;;;;;;;4391907;32;20193;-73
2022/01/15 17:41:37;;;;;;;17.33;14.93;;;;;;;;;;4391915;32;20121;-72
2022/01/15 17:44:03;;;;;;;16.90;13.48;;;;;;;;;;4391869;32;20090;-72
2022/01/15 17:46:29;;;;;;;15.27;13.68;;;;;;;;;;4390646;32;20101;-73
2022/01/15 17:48:55;;;;;;;17.50;13.75;;;;;;;;;;4403177;32;20116;-72
2022/01/15 17:51:23;;;;;;;14.73;13.18;;;;;;;;;;4391650;32;20500;-72
2022/01/15 17:53:49;;;;;;;16.55;12.93;;;;;;;;;;4391560;32;20133;-72
2022/01/15 17:56:15;;;;;;;15.45;13.20;;;;;;;;;;4377937;32;20098;-72
2022/01/15 17:58:41;;;;;;;16.05;12.95;;;;;;;;;;4402690;32;20117;-72
2022/01/15 18:01:08;;;;;;;15.05;13.27;;;;;;;;;;4391555;32;20621;-72
2022/01/15 18:03:35;;;;;;;14.25;12.75;;;;;;;;;;4390020;32;20086;-72
2022/01/15 18:06:04;;;;;;;15.20;12.93;;;;;;;;;;4391463;32;20093;-73
2022/01/15 18:08:31;;;;;;;15.50;12.00;;;;;;;;;;4390107;32;20532;-72
2022/01/15 18:10:57;;;;;;;15.00;12.73;;;;;;;;;;4390397;32;20101;-73
2022/01/15 18:13:23;;;;;;;15.02;13.20;;;;;;;;;;4391441;32;20201;-73
2022/01/15 18:15:49;;;;;;;15.50;13.07;;;;;;;;;;4390132;32;20121;-71
2022/01/15 18:18:15;;;;;;;15.95;13.27;;;;;;;;;;4391469;32;20162;-73
2022/01/15 18:20:45;;;;;;;17.67;13.88;;;;;;;;;;4392144;32;20485;-72
2022/01/15 18:23:12;;;;;;;14.93;13.32;;;;;;;;;;4392144;32;20195;-72
2022/01/15 18:25:38;;;;;;;16.00;14.30;;;;;;;;;;4392184;32;20100;-71
2022/01/15 18:28:05;;;;;;;16.87;13.80;;;;;;;;;;4392086;32;20106;-71
2022/01/15 18:30:31;;;;;;;14.35;12.85;;;;;;;;;;4392093;32;20527;-70
2022/01/15 18:32:59;;;;;;;15.60;13.90;;;;;;;;;;4393505;32;20109;-71
2022/01/15 18:35:27;;;;;;;15.10;13.43;;;;;;;;;;4393560;32;20197;-71
2022/01/15 18:37:53;;;;;;;15.15;13.55;;;;;;;;;;4392206;32;20225;-72
2022/01/15 18:40:23;;;;;;;15.43;13.55;;;;;;;;;;4393423;32;20524;-72
2022/01/15 18:42:50;;;;;;;14.95;13.38;;;;;;;;;;4392230;32;20186;-72
2022/01/15 18:45:16;;;;;;;15.23;13.43;;;;;;;;;;4393352;32;20133;-72
2022/01/15 18:47:43;;;;;;;14.60;12.77;;;;;;;;;;4391905;32;20122;-72
2022/01/15 18:50:10;;;;;;;14.80;12.73;;;;;;;;;;4393119;32;20192;-73
2022/01/15 18:52:37;;;;;;;15.82;13.40;;;;;;;;;;4393197;32;20116;-72
2022/01/15 18:55:03;;;;;;;13.90;12.40;;;;;;;;;;4405064;32;20110;-72
2022/01/15 18:57:29;;;;;;;15.35;12.60;;;;;;;;;;4392109;32;20218;-72
2022/01/15 18:59:55;;;;;;;12.95;11.65;;;;;;;;;;4391941;32;20128;-72
2022/01/15 19:02:24;;;;;;;14.73;13.23;;;;;;;;;;4391861;32;20600;-72
2022/01/15 19:04:50;;;;;;;13.95;12.43;;;;;;;;;;4404541;32;20097;-72
2022/01/15 19:07:17;;;;;;;15.40;13.05;;;;;;;;;;4393650;32;20108;-73
2022/01/15 19:09:45;;;;;;;14.07;12.48;;;;;;;;;;4372222;32;20226;-71
2022/01/15 19:12:11;;;;;;;15.73;13.13;;;;;;;;;;4389409;32;20089;-70
2022/01/15 19:14:41;;;;;;;14.90;12.48;;;;;;;;;;4393957;32;20116;-72
2022/01/15 19:17:07;;;;;;;15.13;12.88;;;;;;;;;;4392599;32;20129;-72
2022/01/15 19:19:33;;;;;;;14.13;12.37;;;;;;;;;;4393444;32;20448;-72
2022/01/15 19:22:02;;;;;;;16.40;13.20;;;;;;;;;;4393444;32;20113;-72
2022/01/15 19:24:28;;;;;;;13.52;12.07;;;;;;;;;;4393181;32;20187;-72
2022/01/15 19:26:55;;;;;;;13.73;12.27;;;;;;;;;;4391723;32;20464;-72
2022/01/15 19:29:21;;;;;;;14.75;13.18;;;;;;;;;;4393105;32;20112;-72
2022/01/15 19:31:47;;;;;;;14.45;12.90;;;;;;;;;;4393405;32;20102;-72
2022/01/15 19:34:13;;;;;;;13.38;11.98;;;;;;;;;;4391752;32;20109;-72
2022/01/15 19:36:39;;;;;;;15.00;11.80;;;;;;;;;;4392683;32;20147;-72
2022/01/15 19:39:08;;;;;;;13.73;11.60;;;;;;;;;;4391509;32;20133;-72
2022/01/15 19:41:34;;;;;;;12.68;11.35;;;;;;;;;;4391704;32;20223;-72
2022/01/15 19:44:01;;;;;;;13.75;11.38;;;;;;;;;;4392901;32;20177;-72
2022/01/15 19:46:27;;;;;;;12.45;11.15;;;;;;;;;;4391425;32;20636;-72
2022/01/15 19:48:53;;;;;;;12.63;11.27;;;;;;;;;;4393133;32;20133;-73
2022/01/15 19:51:19;;;;;;;11.93;10.27;;;;;;;;;;4404478;32;20125;-73
2022/01/15 19:53:46;;;;;;;13.20;11.90;;;;;;;;;;4393155;32;20120;-73
2022/01/15 19:56:14;;;;;;;12.55;11.15;;;;;;;;;;4379405;32;20128;-72
2022/01/15 19:58:40;;;;;;;12.73;11.43;;;;;;;;;;4391669;32;20106;-73
2022/01/15 20:01:06;;;;;;;12.27;11.07;;;;;;;;;;4404176;32;20178;-72